<?xml version="1.0" encoding="UTF-8" standalone="no" ?>
<gpx xmlns="http://www.topografix.com/GPX/1/1" xmlns:xsi="http://www.w3.org/2001/XMLSchema-instance" xsi:schemaLocation="http://www.topografix.com/GPX/1/1 http://www.topografix.com/GPX/1/1/gpx.xsd" version="1.1" creator="VisuGPX - https://www.visugpx.com">
  <metadata>
    <name>Col et Lac de Soum</name>
    <desc><![CDATA[Au départ de Marsous, suivre le chemin des Artigaus puis col et lac de Soum. Cette randonnée peut-être faite aussi en été.]]></desc>
  </metadata>
  <trk>
    <name><![CDATA[Col et Lac de Soum_1]]></name>
    <extensions>
      <line xmlns="http://www.topografix.com/GPX/gpx_style/0/2">
        <color>0000ff</color>
        <width>4</width>
      </line>
    </extensions>
    <trkseg>
      <trkpt lat="42.96452" lon="-0.20307">
        <ele>863</ele>
        <time>2016-02-17T09:35:25+01:00</time>
      </trkpt>
      <trkpt lat="42.9639" lon="-0.20326">
        <ele>863</ele>
        <time>2016-02-17T09:35:51+01:00</time>
      </trkpt>
      <trkpt lat="42.96361" lon="-0.20343">
        <ele>864</ele>
        <time>2016-02-17T09:36:18+01:00</time>
      </trkpt>
      <trkpt lat="42.96324" lon="-0.20373">
        <ele>865</ele>
        <time>2016-02-17T09:36:54+01:00</time>
      </trkpt>
      <trkpt lat="42.96303" lon="-0.20387">
        <ele>866</ele>
        <time>2016-02-17T09:37:22+01:00</time>
      </trkpt>
      <trkpt lat="42.96283" lon="-0.2041">
        <ele>867</ele>
        <time>2016-02-17T09:37:53+01:00</time>
      </trkpt>
      <trkpt lat="42.9626" lon="-0.20432">
        <ele>868</ele>
        <time>2016-02-17T09:38:30+01:00</time>
      </trkpt>
      <trkpt lat="42.96266" lon="-0.20482">
        <ele>871</ele>
        <time>2016-02-17T09:39:05+01:00</time>
      </trkpt>
      <trkpt lat="42.96267" lon="-0.20536">
        <ele>874</ele>
        <time>2016-02-17T09:39:34+01:00</time>
      </trkpt>
      <trkpt lat="42.96264" lon="-0.20588">
        <ele>877</ele>
        <time>2016-02-17T09:40:07+01:00</time>
      </trkpt>
      <trkpt lat="42.96265" lon="-0.20617">
        <ele>879</ele>
        <time>2021-10-14T17:16:40+02:00</time>
      </trkpt>
      <trkpt lat="42.96266" lon="-0.20663">
        <ele>882</ele>
        <time>2016-02-17T09:41:36+01:00</time>
      </trkpt>
      <trkpt lat="42.96269" lon="-0.20705">
        <ele>889</ele>
        <time>2016-02-17T09:42:15+01:00</time>
      </trkpt>
      <trkpt lat="42.96272" lon="-0.20775">
        <ele>901</ele>
        <time>2016-02-17T09:43:53+01:00</time>
      </trkpt>
      <trkpt lat="42.96285" lon="-0.20841">
        <ele>912</ele>
        <time>2016-02-17T09:45:27+01:00</time>
      </trkpt>
      <trkpt lat="42.96292" lon="-0.20891">
        <ele>920</ele>
        <time>2016-02-17T09:46:27+01:00</time>
      </trkpt>
      <trkpt lat="42.96308" lon="-0.20932">
        <ele>927</ele>
        <time>2016-02-17T09:47:39+01:00</time>
      </trkpt>
      <trkpt lat="42.96329" lon="-0.20966">
        <ele>933</ele>
        <time>2016-02-17T09:48:53+01:00</time>
      </trkpt>
      <trkpt lat="42.96351" lon="-0.2102">
        <ele>942</ele>
        <time>2016-02-17T09:50:00+01:00</time>
      </trkpt>
      <trkpt lat="42.96353" lon="-0.21058">
        <ele>947</ele>
        <time>2016-02-17T09:53:45+01:00</time>
      </trkpt>
      <trkpt lat="42.96355" lon="-0.21105">
        <ele>954</ele>
        <time>2016-02-17T09:54:39+01:00</time>
      </trkpt>
      <trkpt lat="42.96365" lon="-0.21145">
        <ele>960</ele>
        <time>2021-10-14T17:17:35+02:00</time>
      </trkpt>
      <trkpt lat="42.96372" lon="-0.21192">
        <ele>967</ele>
        <time>2016-02-17T09:55:30+01:00</time>
      </trkpt>
      <trkpt lat="42.96391" lon="-0.21252">
        <ele>977</ele>
        <time>2016-02-17T09:56:21+01:00</time>
      </trkpt>
      <trkpt lat="42.96407" lon="-0.21306">
        <ele>985</ele>
        <time>2016-02-17T09:57:11+01:00</time>
      </trkpt>
      <trkpt lat="42.96438" lon="-0.2137">
        <ele>995</ele>
        <time>2016-02-17T09:58:45+01:00</time>
      </trkpt>
      <trkpt lat="42.96463" lon="-0.21427">
        <ele>1006</ele>
        <time>2016-02-17T10:02:58+01:00</time>
      </trkpt>
      <trkpt lat="42.96508" lon="-0.21495">
        <ele>1024</ele>
        <time>2016-02-17T10:05:15+01:00</time>
      </trkpt>
      <trkpt lat="42.96547" lon="-0.21567">
        <ele>1039</ele>
        <time>2016-02-17T10:06:26+01:00</time>
      </trkpt>
      <trkpt lat="42.96589" lon="-0.21597">
        <ele>1052</ele>
        <time>2016-02-17T10:08:12+01:00</time>
      </trkpt>
      <trkpt lat="42.96613" lon="-0.21606">
        <ele>1059</ele>
        <time>2016-02-17T10:12:22+01:00</time>
      </trkpt>
      <trkpt lat="42.96662" lon="-0.21654">
        <ele>1079</ele>
        <time>2016-02-17T10:13:42+01:00</time>
      </trkpt>
      <trkpt lat="42.9668" lon="-0.21701">
        <ele>1092</ele>
        <time>2016-02-17T10:15:32+01:00</time>
      </trkpt>
      <trkpt lat="42.96679" lon="-0.2176">
        <ele>1102</ele>
        <time>2021-10-14T17:18:35+02:00</time>
      </trkpt>
      <trkpt lat="42.96701" lon="-0.21809">
        <ele>1114</ele>
        <time>2016-02-17T10:20:54+01:00</time>
      </trkpt>
      <trkpt lat="42.96724" lon="-0.21808">
        <ele>1121</ele>
        <time>2016-02-17T10:21:59+01:00</time>
      </trkpt>
      <trkpt lat="42.96744" lon="-0.21863">
        <ele>1135</ele>
        <time>2016-02-17T10:22:52+01:00</time>
      </trkpt>
      <trkpt lat="42.96776" lon="-0.21935">
        <ele>1148</ele>
        <time>2016-02-17T10:25:04+01:00</time>
      </trkpt>
      <trkpt lat="42.96807" lon="-0.21999">
        <ele>1157</ele>
        <time>2016-02-17T10:25:55+01:00</time>
      </trkpt>
      <trkpt lat="42.96823" lon="-0.22061">
        <ele>1153</ele>
        <time>2016-02-17T10:27:18+01:00</time>
      </trkpt>
      <trkpt lat="42.96843" lon="-0.22108">
        <ele>1148</ele>
        <time>2016-02-17T10:27:55+01:00</time>
      </trkpt>
      <trkpt lat="42.9687" lon="-0.22153">
        <ele>1143</ele>
        <time>2016-02-17T10:28:31+01:00</time>
      </trkpt>
      <trkpt lat="42.96897" lon="-0.22193">
        <ele>1142</ele>
        <time>2016-02-17T10:29:37+01:00</time>
      </trkpt>
      <trkpt lat="42.96934" lon="-0.22234">
        <ele>1144</ele>
        <time>2016-02-17T10:30:12+01:00</time>
      </trkpt>
      <trkpt lat="42.96969" lon="-0.22266">
        <ele>1149</ele>
        <time>2016-02-17T10:30:47+01:00</time>
      </trkpt>
      <trkpt lat="42.97009" lon="-0.22286">
        <ele>1156</ele>
        <time>2016-02-17T10:31:21+01:00</time>
      </trkpt>
      <trkpt lat="42.97053" lon="-0.22297">
        <ele>1168</ele>
        <time>2016-02-17T10:31:57+01:00</time>
      </trkpt>
      <trkpt lat="42.97091" lon="-0.22324">
        <ele>1180</ele>
        <time>2016-02-17T10:33:43+01:00</time>
      </trkpt>
      <trkpt lat="42.9713" lon="-0.22353">
        <ele>1187</ele>
        <time>2016-02-17T10:34:43+01:00</time>
      </trkpt>
      <trkpt lat="42.97167" lon="-0.22379">
        <ele>1194</ele>
        <time>2016-02-17T10:35:43+01:00</time>
      </trkpt>
      <trkpt lat="42.97196" lon="-0.22418">
        <ele>1200</ele>
        <time>2016-02-17T10:36:45+01:00</time>
      </trkpt>
      <trkpt lat="42.97225" lon="-0.22453">
        <ele>1202</ele>
        <time>2016-02-17T10:37:49+01:00</time>
      </trkpt>
      <trkpt lat="42.97268" lon="-0.22479">
        <ele>1207</ele>
        <time>2016-02-17T10:38:25+01:00</time>
      </trkpt>
      <trkpt lat="42.97297" lon="-0.22483">
        <ele>1212</ele>
        <time>2016-02-17T10:39:07+01:00</time>
      </trkpt>
      <trkpt lat="42.97329" lon="-0.22524">
        <ele>1221</ele>
        <time>2016-02-17T10:40:33+01:00</time>
      </trkpt>
      <trkpt lat="42.9735" lon="-0.22575">
        <ele>1228</ele>
        <time>2016-02-17T10:41:26+01:00</time>
      </trkpt>
      <trkpt lat="42.9734" lon="-0.22647">
        <ele>1233</ele>
        <time>2016-02-17T10:42:32+01:00</time>
      </trkpt>
      <trkpt lat="42.97345" lon="-0.22715">
        <ele>1240</ele>
        <time>2016-02-17T10:43:38+01:00</time>
      </trkpt>
      <trkpt lat="42.97366" lon="-0.22769">
        <ele>1250</ele>
        <time>2016-02-17T10:44:38+01:00</time>
      </trkpt>
      <trkpt lat="42.97396" lon="-0.22819">
        <ele>1263</ele>
        <time>2016-02-17T10:45:44+01:00</time>
      </trkpt>
      <trkpt lat="42.97411" lon="-0.22791">
        <ele>1263</ele>
        <time>2016-02-17T10:54:55+01:00</time>
      </trkpt>
      <trkpt lat="42.97423" lon="-0.22827">
        <ele>1271</ele>
        <time>2016-02-17T10:55:44+01:00</time>
      </trkpt>
      <trkpt lat="42.97438" lon="-0.22791">
        <ele>1269</ele>
        <time>2016-02-17T10:56:43+01:00</time>
      </trkpt>
      <trkpt lat="42.97442" lon="-0.22813">
        <ele>1273</ele>
        <time>2016-02-17T10:57:37+01:00</time>
      </trkpt>
      <trkpt lat="42.97454" lon="-0.22787">
        <ele>1272</ele>
        <time>2016-02-17T11:00:12+01:00</time>
      </trkpt>
      <trkpt lat="42.97467" lon="-0.22816">
        <ele>1279</ele>
        <time>2016-02-17T11:01:22+01:00</time>
      </trkpt>
      <trkpt lat="42.97489" lon="-0.22839">
        <ele>1288</ele>
        <time>2016-02-17T11:02:10+01:00</time>
      </trkpt>
      <trkpt lat="42.97488" lon="-0.2286">
        <ele>1291</ele>
        <time>2016-02-17T11:05:37+01:00</time>
      </trkpt>
      <trkpt lat="42.97492" lon="-0.22893">
        <ele>1296</ele>
        <time>2016-02-17T11:07:15+01:00</time>
      </trkpt>
      <trkpt lat="42.9751" lon="-0.22911">
        <ele>1303</ele>
        <time>2016-02-17T11:08:36+01:00</time>
      </trkpt>
      <trkpt lat="42.97528" lon="-0.22938">
        <ele>1308</ele>
        <time>2016-02-17T11:09:47+01:00</time>
      </trkpt>
      <trkpt lat="42.97547" lon="-0.22973">
        <ele>1315</ele>
        <time>2016-02-17T11:11:11+01:00</time>
      </trkpt>
      <trkpt lat="42.97554" lon="-0.22993">
        <ele>1318</ele>
        <time>2016-02-17T11:12:30+01:00</time>
      </trkpt>
      <trkpt lat="42.97555" lon="-0.23025">
        <ele>1321</ele>
        <time>2016-02-17T11:13:25+01:00</time>
      </trkpt>
      <trkpt lat="42.97572" lon="-0.23061">
        <ele>1329</ele>
        <time>2016-02-17T11:14:29+01:00</time>
      </trkpt>
      <trkpt lat="42.97592" lon="-0.231">
        <ele>1338</ele>
        <time>2016-02-17T11:15:47+01:00</time>
      </trkpt>
      <trkpt lat="42.97627" lon="-0.23125">
        <ele>1346</ele>
        <time>2016-02-17T11:17:15+01:00</time>
      </trkpt>
      <trkpt lat="42.97643" lon="-0.23156">
        <ele>1351</ele>
        <time>2016-02-17T11:20:18+01:00</time>
      </trkpt>
      <trkpt lat="42.97674" lon="-0.2318">
        <ele>1358</ele>
        <time>2016-02-17T11:21:21+01:00</time>
      </trkpt>
      <trkpt lat="42.97713" lon="-0.23194">
        <ele>1367</ele>
        <time>2016-02-17T11:23:05+01:00</time>
      </trkpt>
      <trkpt lat="42.9773" lon="-0.23203">
        <ele>1371</ele>
        <time>2016-02-17T11:25:35+01:00</time>
      </trkpt>
      <trkpt lat="42.97732" lon="-0.2325">
        <ele>1373</ele>
        <time>2016-02-17T11:27:18+01:00</time>
      </trkpt>
      <trkpt lat="42.97745" lon="-0.23313">
        <ele>1376</ele>
        <time>2016-02-17T11:29:16+01:00</time>
      </trkpt>
      <trkpt lat="42.97735" lon="-0.23354">
        <ele>1376</ele>
        <time>2021-10-14T17:22:45+02:00</time>
      </trkpt>
      <trkpt lat="42.97716" lon="-0.23412">
        <ele>1378</ele>
        <time>2021-10-14T17:22:50+02:00</time>
      </trkpt>
      <trkpt lat="42.9768" lon="-0.23443">
        <ele>1379</ele>
        <time>2021-10-14T17:22:55+02:00</time>
      </trkpt>
      <trkpt lat="42.97658" lon="-0.23478">
        <ele>1382</ele>
        <time>2016-02-17T11:30:20+01:00</time>
      </trkpt>
      <trkpt lat="42.97631" lon="-0.23503">
        <ele>1384</ele>
        <time>2021-10-14T17:23:05+02:00</time>
      </trkpt>
      <trkpt lat="42.97601" lon="-0.23542">
        <ele>1389</ele>
        <time>2021-10-14T17:23:10+02:00</time>
      </trkpt>
      <trkpt lat="42.97565" lon="-0.23591">
        <ele>1395</ele>
        <time>2021-10-14T17:23:15+02:00</time>
      </trkpt>
      <trkpt lat="42.97546" lon="-0.23635">
        <ele>1402</ele>
        <time>2016-02-17T11:31:43+01:00</time>
      </trkpt>
      <trkpt lat="42.97562" lon="-0.23703">
        <ele>1411</ele>
        <time>2021-10-14T17:23:25+02:00</time>
      </trkpt>
      <trkpt lat="42.97565" lon="-0.23772">
        <ele>1419</ele>
        <time>2016-02-17T11:33:18+01:00</time>
      </trkpt>
      <trkpt lat="42.97525" lon="-0.2387">
        <ele>1426</ele>
        <time>2021-10-14T17:23:35+02:00</time>
      </trkpt>
      <trkpt lat="42.97492" lon="-0.23931">
        <ele>1431</ele>
        <time>2016-02-17T11:34:30+01:00</time>
      </trkpt>
      <trkpt lat="42.97463" lon="-0.23946">
        <ele>1435</ele>
        <time>2016-02-17T11:35:26+01:00</time>
      </trkpt>
      <trkpt lat="42.97431" lon="-0.23949">
        <ele>1440</ele>
        <time>2016-02-17T11:37:21+01:00</time>
      </trkpt>
      <trkpt lat="42.97405" lon="-0.23944">
        <ele>1442</ele>
        <time>2016-02-17T11:38:26+01:00</time>
      </trkpt>
      <trkpt lat="42.97381" lon="-0.23941">
        <ele>1443</ele>
        <time>2016-02-17T11:40:14+01:00</time>
      </trkpt>
      <trkpt lat="42.97353" lon="-0.23964">
        <ele>1447</ele>
        <time>2016-02-17T11:41:18+01:00</time>
      </trkpt>
      <trkpt lat="42.97356" lon="-0.24002">
        <ele>1449</ele>
        <time>2016-02-17T11:43:45+01:00</time>
      </trkpt>
      <trkpt lat="42.97351" lon="-0.2405">
        <ele>1452</ele>
        <time>2016-02-17T11:52:33+01:00</time>
      </trkpt>
      <trkpt lat="42.97358" lon="-0.24095">
        <ele>1453</ele>
        <time>2016-02-17T11:53:36+01:00</time>
      </trkpt>
      <trkpt lat="42.9737" lon="-0.2414">
        <ele>1455</ele>
        <time>2016-02-17T11:54:37+01:00</time>
      </trkpt>
      <trkpt lat="42.97384" lon="-0.24187">
        <ele>1458</ele>
        <time>2016-02-17T11:55:50+01:00</time>
      </trkpt>
      <trkpt lat="42.97392" lon="-0.24226">
        <ele>1463</ele>
        <time>2016-02-17T11:57:25+01:00</time>
      </trkpt>
      <trkpt lat="42.97391" lon="-0.24276">
        <ele>1472</ele>
        <time>2016-02-17T12:01:48+01:00</time>
      </trkpt>
      <trkpt lat="42.97394" lon="-0.24318">
        <ele>1481</ele>
        <time>2016-02-17T12:02:48+01:00</time>
      </trkpt>
      <trkpt lat="42.97397" lon="-0.24354">
        <ele>1488</ele>
        <time>2016-02-17T12:04:04+01:00</time>
      </trkpt>
      <trkpt lat="42.97409" lon="-0.24398">
        <ele>1496</ele>
        <time>2016-02-17T12:06:11+01:00</time>
      </trkpt>
      <trkpt lat="42.97396" lon="-0.24441">
        <ele>1509</ele>
        <time>2016-02-17T12:09:38+01:00</time>
      </trkpt>
      <trkpt lat="42.97413" lon="-0.24455">
        <ele>1511</ele>
        <time>2016-02-17T12:11:32+01:00</time>
      </trkpt>
      <trkpt lat="42.97413" lon="-0.24481">
        <ele>1519</ele>
        <time>2016-02-17T12:12:45+01:00</time>
      </trkpt>
      <trkpt lat="42.97438" lon="-0.24511">
        <ele>1525</ele>
        <time>2016-02-17T12:13:41+01:00</time>
      </trkpt>
      <trkpt lat="42.97464" lon="-0.24483">
        <ele>1517</ele>
        <time>2016-02-17T12:15:25+01:00</time>
      </trkpt>
      <trkpt lat="42.97502" lon="-0.24481">
        <ele>1515</ele>
        <time>2016-02-17T12:16:41+01:00</time>
      </trkpt>
      <trkpt lat="42.97533" lon="-0.24472">
        <ele>1518</ele>
        <time>2016-02-17T12:18:39+01:00</time>
      </trkpt>
      <trkpt lat="42.97565" lon="-0.24459">
        <ele>1520</ele>
        <time>2016-02-17T12:20:17+01:00</time>
      </trkpt>
      <trkpt lat="42.97601" lon="-0.24471">
        <ele>1533</ele>
        <time>2016-02-17T12:21:10+01:00</time>
      </trkpt>
      <trkpt lat="42.97636" lon="-0.24479">
        <ele>1546</ele>
        <time>2016-02-17T12:22:10+01:00</time>
      </trkpt>
      <trkpt lat="42.97674" lon="-0.24469">
        <ele>1552</ele>
        <time>2016-02-17T12:23:11+01:00</time>
      </trkpt>
      <trkpt lat="42.97707" lon="-0.24469">
        <ele>1558</ele>
        <time>2016-02-17T12:26:03+01:00</time>
      </trkpt>
      <trkpt lat="42.97744" lon="-0.2447">
        <ele>1564</ele>
        <time>2016-02-17T12:26:51+01:00</time>
      </trkpt>
      <trkpt lat="42.97783" lon="-0.24463">
        <ele>1567</ele>
        <time>2016-02-17T12:28:21+01:00</time>
      </trkpt>
      <trkpt lat="42.97818" lon="-0.24448">
        <ele>1568</ele>
        <time>2016-02-17T12:28:56+01:00</time>
      </trkpt>
      <trkpt lat="42.97849" lon="-0.24424">
        <ele>1567</ele>
        <time>2016-02-17T12:29:27+01:00</time>
      </trkpt>
      <trkpt lat="42.97884" lon="-0.24414">
        <ele>1571</ele>
        <time>2016-02-17T12:30:02+01:00</time>
      </trkpt>
      <trkpt lat="42.97916" lon="-0.24391">
        <ele>1570</ele>
        <time>2016-02-17T12:30:33+01:00</time>
      </trkpt>
      <trkpt lat="42.97948" lon="-0.24367">
        <ele>1566</ele>
        <time>2016-02-17T12:31:07+01:00</time>
      </trkpt>
      <trkpt lat="42.97974" lon="-0.24333">
        <ele>1562</ele>
        <time>2016-02-17T12:31:40+01:00</time>
      </trkpt>
      <trkpt lat="42.98005" lon="-0.24304">
        <ele>1557</ele>
        <time>2016-02-17T12:32:15+01:00</time>
      </trkpt>
      <trkpt lat="42.98034" lon="-0.24279">
        <ele>1553</ele>
        <time>2016-02-17T12:33:34+01:00</time>
      </trkpt>
      <trkpt lat="42.98063" lon="-0.24268">
        <ele>1554</ele>
        <time>2016-02-17T12:34:42+01:00</time>
      </trkpt>
      <trkpt lat="42.98096" lon="-0.24247">
        <ele>1553</ele>
        <time>2016-02-17T12:35:19+01:00</time>
      </trkpt>
      <trkpt lat="42.98128" lon="-0.24224">
        <ele>1548</ele>
        <time>2016-02-17T12:35:52+01:00</time>
      </trkpt>
      <trkpt lat="42.98158" lon="-0.24197">
        <ele>1545</ele>
        <time>2016-02-17T12:36:24+01:00</time>
      </trkpt>
      <trkpt lat="42.98189" lon="-0.24171">
        <ele>1543</ele>
        <time>2016-02-17T12:36:55+01:00</time>
      </trkpt>
      <trkpt lat="42.98214" lon="-0.24145">
        <ele>1544</ele>
        <time>2016-02-17T12:37:27+01:00</time>
      </trkpt>
      <trkpt lat="42.98238" lon="-0.24126">
        <ele>1546</ele>
        <time>2016-02-17T12:38:06+01:00</time>
      </trkpt>
      <trkpt lat="42.9826" lon="-0.24124">
        <ele>1551</ele>
        <time>2016-02-17T12:38:47+01:00</time>
      </trkpt>
      <trkpt lat="42.98279" lon="-0.24109">
        <ele>1561</ele>
        <time>2016-02-17T12:40:00+01:00</time>
      </trkpt>
      <trkpt lat="42.98274" lon="-0.24067">
        <ele>1562</ele>
        <time>2016-02-17T13:45:47+01:00</time>
      </trkpt>
      <trkpt lat="42.98268" lon="-0.24012">
        <ele>1562</ele>
        <time>2016-02-17T13:46:24+01:00</time>
      </trkpt>
      <trkpt lat="42.98262" lon="-0.23949">
        <ele>1556</ele>
        <time>2016-02-17T13:47:30+01:00</time>
      </trkpt>
      <trkpt lat="42.98251" lon="-0.23899">
        <ele>1546</ele>
        <time>2016-02-17T13:48:13+01:00</time>
      </trkpt>
      <trkpt lat="42.98236" lon="-0.23852">
        <ele>1537</ele>
        <time>2016-02-17T13:49:02+01:00</time>
      </trkpt>
      <trkpt lat="42.98219" lon="-0.23799">
        <ele>1525</ele>
        <time>2016-02-17T13:55:12+01:00</time>
      </trkpt>
      <trkpt lat="42.98243" lon="-0.23749">
        <ele>1531</ele>
        <time>2016-02-17T13:56:34+01:00</time>
      </trkpt>
      <trkpt lat="42.98247" lon="-0.23683">
        <ele>1531</ele>
        <time>2016-02-17T13:57:33+01:00</time>
      </trkpt>
      <trkpt lat="42.98229" lon="-0.23625">
        <ele>1525</ele>
        <time>2016-02-17T13:58:34+01:00</time>
      </trkpt>
      <trkpt lat="42.98221" lon="-0.2356">
        <ele>1527</ele>
        <time>2016-02-17T14:02:13+01:00</time>
      </trkpt>
      <trkpt lat="42.98186" lon="-0.23524">
        <ele>1504</ele>
        <time>2016-02-17T14:03:42+01:00</time>
      </trkpt>
      <trkpt lat="42.98171" lon="-0.23483">
        <ele>1494</ele>
        <time>2016-02-17T14:05:56+01:00</time>
      </trkpt>
      <trkpt lat="42.98158" lon="-0.23432">
        <ele>1492</ele>
        <time>2016-02-17T14:06:52+01:00</time>
      </trkpt>
      <trkpt lat="42.98148" lon="-0.23396">
        <ele>1491</ele>
        <time>2016-02-17T14:07:54+01:00</time>
      </trkpt>
      <trkpt lat="42.98125" lon="-0.23339">
        <ele>1485</ele>
        <time>2016-02-17T14:08:39+01:00</time>
      </trkpt>
      <trkpt lat="42.9809" lon="-0.23318">
        <ele>1471</ele>
        <time>2016-02-17T14:09:27+01:00</time>
      </trkpt>
      <trkpt lat="42.98065" lon="-0.23279">
        <ele>1464</ele>
        <time>2016-02-17T14:10:15+01:00</time>
      </trkpt>
      <trkpt lat="42.98039" lon="-0.23249">
        <ele>1457</ele>
        <time>2016-02-17T14:11:42+01:00</time>
      </trkpt>
      <trkpt lat="42.98018" lon="-0.23228">
        <ele>1450</ele>
        <time>2016-02-17T14:12:33+01:00</time>
      </trkpt>
      <trkpt lat="42.97985" lon="-0.23187">
        <ele>1435</ele>
        <time>2016-02-17T14:13:33+01:00</time>
      </trkpt>
      <trkpt lat="42.97949" lon="-0.2317">
        <ele>1422</ele>
        <time>2016-02-17T14:15:47+01:00</time>
      </trkpt>
      <trkpt lat="42.97916" lon="-0.23172">
        <ele>1410</ele>
        <time>2016-02-17T14:17:38+01:00</time>
      </trkpt>
      <trkpt lat="42.97879" lon="-0.23168">
        <ele>1401</ele>
        <time>2016-02-17T14:19:54+01:00</time>
      </trkpt>
      <trkpt lat="42.97859" lon="-0.23172">
        <ele>1396</ele>
        <time>2016-02-17T14:22:53+01:00</time>
      </trkpt>
      <trkpt lat="42.97822" lon="-0.23152">
        <ele>1387</ele>
        <time>2016-02-17T14:29:02+01:00</time>
      </trkpt>
      <trkpt lat="42.97797" lon="-0.23119">
        <ele>1379</ele>
        <time>2016-02-17T14:30:14+01:00</time>
      </trkpt>
      <trkpt lat="42.97749" lon="-0.23109">
        <ele>1368</ele>
        <time>2016-02-17T14:31:14+01:00</time>
      </trkpt>
      <trkpt lat="42.97711" lon="-0.23092">
        <ele>1359</ele>
        <time>2016-02-17T14:32:07+01:00</time>
      </trkpt>
      <trkpt lat="42.97675" lon="-0.23069">
        <ele>1350</ele>
        <time>2016-02-17T14:32:54+01:00</time>
      </trkpt>
      <trkpt lat="42.97642" lon="-0.23042">
        <ele>1342</ele>
        <time>2016-02-17T14:33:45+01:00</time>
      </trkpt>
      <trkpt lat="42.97613" lon="-0.23016">
        <ele>1334</ele>
        <time>2016-02-17T14:34:30+01:00</time>
      </trkpt>
      <trkpt lat="42.97585" lon="-0.22991">
        <ele>1326</ele>
        <time>2016-02-17T14:54:32+01:00</time>
      </trkpt>
      <trkpt lat="42.97562" lon="-0.22969">
        <ele>1319</ele>
        <time>2016-02-17T14:55:39+01:00</time>
      </trkpt>
      <trkpt lat="42.97547" lon="-0.22946">
        <ele>1313</ele>
        <time>2021-10-14T17:30:20+02:00</time>
      </trkpt>
      <trkpt lat="42.97533" lon="-0.22918">
        <ele>1309</ele>
        <time>2016-02-17T14:56:44+01:00</time>
      </trkpt>
      <trkpt lat="42.97518" lon="-0.22903">
        <ele>1304</ele>
        <time>2021-10-14T17:30:30+02:00</time>
      </trkpt>
      <trkpt lat="42.97508" lon="-0.22881">
        <ele>1298</ele>
        <time>2016-02-17T14:57:31+01:00</time>
      </trkpt>
      <trkpt lat="42.9749" lon="-0.22838">
        <ele>1288</ele>
        <time>2016-02-17T14:59:22+01:00</time>
      </trkpt>
      <trkpt lat="42.97469" lon="-0.22813">
        <ele>1279</ele>
        <time>2016-02-17T15:00:44+01:00</time>
      </trkpt>
      <trkpt lat="42.97455" lon="-0.22781">
        <ele>1271</ele>
        <time>2016-02-17T15:01:32+01:00</time>
      </trkpt>
      <trkpt lat="42.97445" lon="-0.22807">
        <ele>1273</ele>
        <time>2021-10-14T17:30:55+02:00</time>
      </trkpt>
      <trkpt lat="42.97438" lon="-0.22782">
        <ele>1268</ele>
        <time>2016-02-17T15:02:19+01:00</time>
      </trkpt>
      <trkpt lat="42.97422" lon="-0.22819">
        <ele>1269</ele>
        <time>2016-02-17T15:03:08+01:00</time>
      </trkpt>
      <trkpt lat="42.97411" lon="-0.22779">
        <ele>1261</ele>
        <time>2021-10-14T17:31:10+02:00</time>
      </trkpt>
      <trkpt lat="42.974" lon="-0.2281">
        <ele>1263</ele>
        <time>2016-02-17T15:03:53+01:00</time>
      </trkpt>
      <trkpt lat="42.9737" lon="-0.22775">
        <ele>1252</ele>
        <time>2016-02-17T15:07:54+01:00</time>
      </trkpt>
      <trkpt lat="42.9735" lon="-0.22724">
        <ele>1242</ele>
        <time>2016-02-17T15:08:40+01:00</time>
      </trkpt>
      <trkpt lat="42.97342" lon="-0.22648">
        <ele>1234</ele>
        <time>2016-02-17T15:09:42+01:00</time>
      </trkpt>
      <trkpt lat="42.97353" lon="-0.22581">
        <ele>1229</ele>
        <time>2016-02-17T15:10:31+01:00</time>
      </trkpt>
      <trkpt lat="42.97327" lon="-0.22521">
        <ele>1220</ele>
        <time>2016-02-17T15:11:30+01:00</time>
      </trkpt>
      <trkpt lat="42.97294" lon="-0.22479">
        <ele>1211</ele>
        <time>2016-02-17T15:15:06+01:00</time>
      </trkpt>
      <trkpt lat="42.97301" lon="-0.22445">
        <ele>1208</ele>
        <time>2021-10-14T17:31:50+02:00</time>
      </trkpt>
      <trkpt lat="42.9732" lon="-0.22385">
        <ele>1202</ele>
        <time>2016-02-17T15:17:44+01:00</time>
      </trkpt>
      <trkpt lat="42.97318" lon="-0.22331">
        <ele>1193</ele>
        <time>2021-10-14T17:32:00+02:00</time>
      </trkpt>
      <trkpt lat="42.97346" lon="-0.22279">
        <ele>1189</ele>
        <time>2016-02-17T15:22:07+01:00</time>
      </trkpt>
      <trkpt lat="42.97314" lon="-0.22216">
        <ele>1175</ele>
        <time>2016-02-17T15:23:42+01:00</time>
      </trkpt>
      <trkpt lat="42.97282" lon="-0.22168">
        <ele>1163</ele>
        <time>2016-02-17T15:24:57+01:00</time>
      </trkpt>
      <trkpt lat="42.97267" lon="-0.22101">
        <ele>1149</ele>
        <time>2016-02-17T15:25:45+01:00</time>
      </trkpt>
      <trkpt lat="42.97248" lon="-0.22013">
        <ele>1146</ele>
        <time>2016-02-17T15:26:38+01:00</time>
      </trkpt>
      <trkpt lat="42.97234" lon="-0.21952">
        <ele>1150</ele>
        <time>2016-02-17T15:27:28+01:00</time>
      </trkpt>
      <trkpt lat="42.97212" lon="-0.21872">
        <ele>1156</ele>
        <time>2016-02-17T15:28:33+01:00</time>
      </trkpt>
      <trkpt lat="42.9719" lon="-0.21799">
        <ele>1156</ele>
        <time>2016-02-17T15:29:50+01:00</time>
      </trkpt>
      <trkpt lat="42.97185" lon="-0.21737">
        <ele>1151</ele>
        <time>2016-02-17T15:30:38+01:00</time>
      </trkpt>
      <trkpt lat="42.97193" lon="-0.21677">
        <ele>1145</ele>
        <time>2016-02-17T15:31:33+01:00</time>
      </trkpt>
      <trkpt lat="42.97196" lon="-0.2162">
        <ele>1138</ele>
        <time>2016-02-17T15:32:20+01:00</time>
      </trkpt>
      <trkpt lat="42.97197" lon="-0.21566">
        <ele>1132</ele>
        <time>2016-02-17T15:33:04+01:00</time>
      </trkpt>
      <trkpt lat="42.97217" lon="-0.21495">
        <ele>1127</ele>
        <time>2016-02-17T15:34:49+01:00</time>
      </trkpt>
      <trkpt lat="42.9723" lon="-0.2145">
        <ele>1126</ele>
        <time>2016-02-17T15:35:32+01:00</time>
      </trkpt>
      <trkpt lat="42.97212" lon="-0.21375">
        <ele>1118</ele>
        <time>2016-02-17T15:38:13+01:00</time>
      </trkpt>
      <trkpt lat="42.97198" lon="-0.21317">
        <ele>1111</ele>
        <time>2016-02-17T15:39:04+01:00</time>
      </trkpt>
      <trkpt lat="42.97206" lon="-0.21255">
        <ele>1113</ele>
        <time>2016-02-17T15:40:43+01:00</time>
      </trkpt>
      <trkpt lat="42.97194" lon="-0.21195">
        <ele>1107</ele>
        <time>2016-02-17T15:42:17+01:00</time>
      </trkpt>
      <trkpt lat="42.97175" lon="-0.21152">
        <ele>1096</ele>
        <time>2016-02-17T15:43:08+01:00</time>
      </trkpt>
      <trkpt lat="42.97161" lon="-0.21115">
        <ele>1089</ele>
        <time>2021-10-14T17:33:40+02:00</time>
      </trkpt>
      <trkpt lat="42.9715" lon="-0.21077">
        <ele>1085</ele>
        <time>2021-10-14T17:33:45+02:00</time>
      </trkpt>
      <trkpt lat="42.97135" lon="-0.21012">
        <ele>1077</ele>
        <time>2016-02-17T15:44:48+01:00</time>
      </trkpt>
      <trkpt lat="42.97128" lon="-0.20933">
        <ele>1069</ele>
        <time>2016-02-17T15:49:53+01:00</time>
      </trkpt>
      <trkpt lat="42.97118" lon="-0.20873">
        <ele>1057</ele>
        <time>2016-02-17T15:51:24+01:00</time>
      </trkpt>
      <trkpt lat="42.97125" lon="-0.20813">
        <ele>1055</ele>
        <time>2016-02-17T15:52:26+01:00</time>
      </trkpt>
      <trkpt lat="42.97117" lon="-0.20736">
        <ele>1040</ele>
        <time>2016-02-17T15:55:29+01:00</time>
      </trkpt>
      <trkpt lat="42.97093" lon="-0.20714">
        <ele>1025</ele>
        <time>2016-02-17T15:56:01+01:00</time>
      </trkpt>
      <trkpt lat="42.97073" lon="-0.20673">
        <ele>1011</ele>
        <time>2016-02-17T15:56:45+01:00</time>
      </trkpt>
      <trkpt lat="42.97061" lon="-0.20635">
        <ele>1001</ele>
        <time>2016-02-17T16:05:22+01:00</time>
      </trkpt>
      <trkpt lat="42.97039" lon="-0.20577">
        <ele>981</ele>
        <time>2016-02-17T16:06:10+01:00</time>
      </trkpt>
      <trkpt lat="42.97041" lon="-0.20499">
        <ele>969</ele>
        <time>2016-02-17T16:07:45+01:00</time>
      </trkpt>
      <trkpt lat="42.97012" lon="-0.20495">
        <ele>951</ele>
        <time>2016-02-17T16:09:07+01:00</time>
      </trkpt>
      <trkpt lat="42.97011" lon="-0.20454">
        <ele>942</ele>
        <time>2016-02-17T16:10:04+01:00</time>
      </trkpt>
      <trkpt lat="42.96984" lon="-0.20439">
        <ele>929</ele>
        <time>2016-02-17T16:10:41+01:00</time>
      </trkpt>
      <trkpt lat="42.96979" lon="-0.20396">
        <ele>918</ele>
        <time>2016-02-17T16:11:26+01:00</time>
      </trkpt>
      <trkpt lat="42.96927" lon="-0.20394">
        <ele>904</ele>
        <time>2016-02-17T16:12:11+01:00</time>
      </trkpt>
      <trkpt lat="42.96943" lon="-0.20349">
        <ele>897</ele>
        <time>2016-02-17T16:12:51+01:00</time>
      </trkpt>
      <trkpt lat="42.96951" lon="-0.20287">
        <ele>886</ele>
        <time>2016-02-17T16:13:35+01:00</time>
      </trkpt>
      <trkpt lat="42.96913" lon="-0.20255">
        <ele>872</ele>
        <time>2016-02-17T16:14:23+01:00</time>
      </trkpt>
      <trkpt lat="42.96874" lon="-0.20208">
        <ele>863</ele>
        <time>2016-02-17T16:15:33+01:00</time>
      </trkpt>
      <trkpt lat="42.96818" lon="-0.2019">
        <ele>860</ele>
        <time>2016-02-17T16:17:06+01:00</time>
      </trkpt>
      <trkpt lat="42.96719" lon="-0.20248">
        <ele>860</ele>
        <time>2016-02-17T16:19:04+01:00</time>
      </trkpt>
      <trkpt lat="42.9664" lon="-0.20253">
        <ele>860</ele>
        <time>2016-02-17T16:19:59+01:00</time>
      </trkpt>
      <trkpt lat="42.96584" lon="-0.20228">
        <ele>860</ele>
        <time>2016-02-17T16:20:46+01:00</time>
      </trkpt>
      <trkpt lat="42.96563" lon="-0.20207">
        <ele>860</ele>
        <time>2016-02-17T16:27:49+01:00</time>
      </trkpt>
      <trkpt lat="42.96537" lon="-0.20185">
        <ele>860</ele>
        <time>2016-02-17T16:28:24+01:00</time>
      </trkpt>
      <trkpt lat="42.9655" lon="-0.20203">
        <ele>860</ele>
        <time>2016-02-17T09:28:34+01:00</time>
      </trkpt>
      <trkpt lat="42.96544" lon="-0.20246">
        <ele>860</ele>
        <time>2016-02-17T09:33:38+01:00</time>
      </trkpt>
      <trkpt lat="42.9654" lon="-0.20286">
        <ele>862</ele>
        <time>2016-02-17T09:34:05+01:00</time>
      </trkpt>
      <trkpt lat="42.96496" lon="-0.20297">
        <ele>862</ele>
        <time>2016-02-17T09:34:57+01:00</time>
      </trkpt>
      <trkpt lat="42.96452" lon="-0.20307">
        <ele>863</ele>
        <time>2016-02-17T09:35:25+01:00</time>
      </trkpt>
    </trkseg>
  </trk>
</gpx>